createdAt,value
2022-12-16T00:00:30.227Z,26.6
2022-12-16T00:06:16.776Z,26.1
2022-12-16T00:11:57.321Z,25.9
2022-12-16T00:17:24.828Z,26.3
2022-12-16T00:23:04.283Z,26.6
2022-12-16T00:28:46.466Z,26.3
2022-12-16T00:34:26.303Z,25.8
2022-12-16T00:40:06.397Z,25.5
2022-12-16T00:45:29.912Z,25.9
2022-12-16T00:50:54.999Z,26.3
2022-12-16T00:56:18.569Z,26.3
2022-12-16T01:01:42.923Z,25.9
2022-12-16T01:06:50.512Z,26.3
2022-12-16T01:12:02.582Z,26.4
2022-12-16T01:16:54.965Z,26
2022-12-16T01:22:01.869Z,25.9
2022-12-16T01:27:42.366Z,26.3
2022-12-16T01:33:19.565Z,26.3
2022-12-16T01:39:29.148Z,25.8
2022-12-16T01:45:11.475Z,26.1
2022-12-16T01:50:34.199Z,26.3
2022-12-16T01:55:55.808Z,26.1
2022-12-16T02:01:34.796Z,25.9
2022-12-16T02:06:57.939Z,26.2
2022-12-16T02:12:05.410Z,25.8
2022-12-16T02:17:12.890Z,25.8
2022-12-16T02:22:34.968Z,26.1
2022-12-16T02:27:28.175Z,26
2022-12-16T02:33:17.300Z,25.6
2022-12-16T02:38:10.215Z,25.9
2022-12-16T02:43:35.467Z,26.1
2022-12-16T02:49:15.668Z,25.8
2022-12-16T02:54:52.791Z,25.8
2022-12-16T02:59:58.374Z,26.1
2022-12-16T03:05:38.199Z,25.9
2022-12-16T03:11:15.322Z,25.6
2022-12-16T03:16:38.216Z,25.9
2022-12-16T03:22:19.043Z,26.1
2022-12-16T03:27:56.862Z,25.6
2022-12-16T03:33:19.187Z,25.8
2022-12-16T03:38:57.453Z,26.1
2022-12-16T03:44:19.946Z,25.9
2022-12-16T03:49:47.586Z,25.6
2022-12-16T03:55:27.157Z,25.9
2022-12-16T04:01:12.029Z,26.3
2022-12-16T04:06:51.239Z,26.1
2022-12-16T04:12:33.320Z,25.8
2022-12-16T04:18:13.166Z,26.1
2022-12-16T04:23:54.539Z,25.8
2022-12-16T04:29:32.624Z,25.7
2022-12-16T04:35:11.419Z,26
2022-12-16T04:40:49.278Z,25.7
2022-12-16T04:46:13.596Z,25.6
2022-12-16T04:51:54.520Z,25.9
2022-12-16T04:57:00.955Z,25.8
2022-12-16T05:02:23.912Z,25.4
2022-12-16T05:08:04.994Z,25.8
2022-12-16T05:13:42.644Z,26
2022-12-16T05:19:23.925Z,25.6
2022-12-16T05:24:52.805Z,25.6
2022-12-16T05:30:33.749Z,26.1
2022-12-16T05:35:57.141Z,25.8
2022-12-16T05:41:35.118Z,25.5
2022-12-16T05:47:15.385Z,25.8
2022-12-16T05:52:42.169Z,26
2022-12-16T05:58:20.511Z,25.6
2022-12-16T06:03:59.845Z,25.6
2022-12-16T06:09:08.518Z,26
2022-12-16T06:14:46.473Z,25.9
2022-12-16T06:20:24.153Z,25.6
2022-12-16T06:26:06.364Z,25.9
2022-12-16T06:31:32.626Z,25.8
2022-12-16T06:37:14.749Z,25.4
2022-12-16T06:42:56.433Z,25.8
2022-12-16T06:48:37.696Z,25.9
2022-12-16T06:54:21.498Z,25.4
2022-12-16T07:00:05.258Z,25.7
2022-12-16T07:05:15.891Z,26
2022-12-16T07:10:56.867Z,25.6
2022-12-16T07:16:38.964Z,25.6
2022-12-16T07:22:21.134Z,26
2022-12-16T07:28:15.233Z,25.6
2022-12-16T07:33:53.661Z,25.1
2022-12-16T07:39:37.293Z,24.8
2022-12-16T07:45:17.279Z,24.6
2022-12-16T07:50:59.104Z,24.6
2022-12-16T07:56:37.868Z,25.1
2022-12-16T08:50:20.917Z,25.3
2022-12-16T08:56:03.856Z,24.1
2022-12-16T09:01:42.462Z,24.1
2022-12-16T09:07:14.528Z,24.6
2022-12-16T09:12:55.035Z,24.9
2022-12-16T09:18:34.661Z,24.6
2022-12-16T09:24:18.402Z,24.4
2022-12-16T09:30:01.527Z,24.9
2022-12-16T09:35:47.095Z,24.8
2022-12-16T09:41:27.884Z,24.5
2022-12-16T09:47:12.753Z,24.6
2022-12-16T09:52:52.697Z,24.9
2022-12-16T09:58:31.194Z,24.6
2022-12-16T10:03:59.627Z,24.4
2022-12-16T10:09:42.912Z,24.9
2022-12-16T10:15:26.809Z,24.8
2022-12-16T10:21:15.923Z,24.5
2022-12-16T10:26:43.861Z,24.6
2022-12-16T10:32:26.755Z,25
2022-12-16T10:37:59.707Z,24.7
2022-12-16T10:43:40.014Z,24.4
2022-12-16T10:49:31.090Z,24.9
2022-12-16T10:55:17.413Z,24.8
2022-12-16T11:00:47.266Z,24.6
2022-12-16T11:06:30.214Z,24.6
2022-12-16T11:12:12.070Z,25.1
2022-12-16T11:18:16.390Z,24.7
2022-12-16T11:24:01.376Z,24.5
2022-12-16T11:29:42.712Z,24.9
2022-12-16T11:35:22.506Z,24.9
2022-12-16T11:41:00.150Z,24.6
2022-12-16T11:46:49.638Z,24.6
2022-12-16T11:52:37.847Z,25.1
2022-12-16T11:58:49.518Z,24.7
2022-12-16T12:04:20.240Z,24.4
2022-12-16T12:09:59.515Z,24.9
2022-12-16T12:15:43.532Z,24.9
2022-12-16T12:21:25.236Z,24.5
2022-12-16T12:27:09.219Z,24.6
2022-12-16T12:32:47.093Z,25.1
2022-12-16T12:38:32.757Z,24.8
2022-12-16T12:43:59.933Z,24.5
2022-12-16T12:49:37.046Z,24.8
2022-12-16T12:55:07.775Z,25.1
2022-12-16T13:00:52.494Z,24.7
2022-12-16T13:06:32.894Z,24.6
2022-12-16T13:12:12.863Z,25
2022-12-16T13:17:59.622Z,24.9
2022-12-16T13:23:27.027Z,24.6
2022-12-16T13:29:05.812Z,24.6
2022-12-16T13:34:46.783Z,25.1
2022-12-16T13:40:33.382Z,24.9
2022-12-16T13:46:12.579Z,24.6
2022-12-16T13:51:53.438Z,24.7
2022-12-16T13:57:37.891Z,25.1
2022-12-16T14:03:08.282Z,24.7
2022-12-16T14:08:48.160Z,24.5
2022-12-16T14:14:12.822Z,24.8
2022-12-16T14:19:51.798Z,25
2022-12-16T14:26:02.216Z,24.6
2022-12-16T14:31:40.411Z,24.5
2022-12-16T14:37:23.971Z,25
2022-12-16T14:43:01.882Z,24.8
2022-12-16T14:48:24.592Z,24.5
2022-12-16T14:54:12.785Z,24.6
2022-12-16T14:59:50.502Z,25
2022-12-16T15:05:21.779Z,24.7
2022-12-16T15:11:10.987Z,24.4
2022-12-16T15:16:50.303Z,24.6
2022-12-16T15:22:32.900Z,24.9
2022-12-16T15:28:17.298Z,24.6
2022-12-16T15:33:59.883Z,24.4
2022-12-16T15:39:12.289Z,24.8
2022-12-16T15:44:50.338Z,24.8
2022-12-16T15:50:33.194Z,24.4
2022-12-16T15:56:16.019Z,24.5
2022-12-16T16:01:57.260Z,24.9
2022-12-16T16:07:23.299Z,24.6
2022-12-16T16:13:07.844Z,24.3
2022-12-16T16:18:54.121Z,24.7
2022-12-16T16:24:19.406Z,24.8
2022-12-16T16:29:46.289Z,24.4
2022-12-16T16:35:24.925Z,24.4
2022-12-16T16:40:32.521Z,24.9
2022-12-16T16:46:16.101Z,24.6
2022-12-16T16:51:27.526Z,24.3
2022-12-16T16:57:10.639Z,24.5
2022-12-16T17:02:55.806Z,24.9
2022-12-16T17:08:42.301Z,24.6
2022-12-16T17:14:27.346Z,24.3
2022-12-16T17:20:11.357Z,24.7
2022-12-16T17:25:55.434Z,24.8
2022-12-16T17:31:38.710Z,24.4
2022-12-16T17:37:22.050Z,24.4
2022-12-16T17:42:29.459Z,24.9
2022-12-16T17:48:09.133Z,24.6
2022-12-16T17:53:52.501Z,24.3
2022-12-16T17:59:28.717Z,24.6
2022-12-16T18:05:08.754Z,24.8
2022-12-16T18:10:02.445Z,24.5
2022-12-16T18:15:40.868Z,24.3
2022-12-16T18:21:04.107Z,24.7
2022-12-16T18:26:13.235Z,24.6
2022-12-16T18:31:51.791Z,24.3
2022-12-16T18:37:33.823Z,24.4
2022-12-16T18:43:14.129Z,24.8
2022-12-16T18:48:43.862Z,24.5
2022-12-16T18:53:56.057Z,24.3
2022-12-16T19:00:05.896Z,24.6
2022-12-16T19:05:45.285Z,24.8
2022-12-16T19:11:07.477Z,24.4
2022-12-16T19:22:05.420Z,24.4
2022-12-16T23:33:06.403Z,24.3
2022-12-16T23:38:30.937Z,24.7
2022-12-16T23:44:12.895Z,24.4
2022-12-16T23:49:44.499Z,24.8
2022-12-16T23:55:26.295Z,24.9
